Time;durP1;ratioP1;P1;durP2;ratioP2;P2;SDS_P1;SDS_P2;PMS_P1;PMS_P2;Temp;Humidity;BMP_temperature;BMP_pressure;BME280_temperature;BME280_humidity;BME280_pressure;Samples;Min_cycle;Max_cycle;Signal;HPM_P1;HPM_P2
2021/12/15 00:00:29;;;;;;;27.13;17.73;;;;;;;2.71;89.15;97528.75;1760797;80;21027;-82
2021/12/15 00:02:57;;;;;;;26.35;17.92;;;;;;;2.73;89.11;97529.46;1772392;80;21413;-82
2021/12/15 00:05:25;;;;;;;28.83;20.25;;;;;;;2.72;89.05;97535.52;1779936;79;21016;-82
2021/12/15 00:07:54;;;;;;;31.87;18.02;;;;;;;2.73;89.09;97529.46;1770141;80;21091;-82
2021/12/15 00:10:22;;;;;;;32.70;20.85;;;;;;;2.74;88.96;97523.86;1776293;80;20972;-82
2021/12/15 00:12:48;;;;;;;33.18;21.15;;;;;;;2.73;88.86;97533.31;1781149;80;21010;-82
2021/12/15 00:15:14;;;;;;;32.13;20.15;;;;;;;2.74;88.92;97531.09;1770358;80;20979;-82
2021/12/15 00:17:40;;;;;;;34.53;20.40;;;;;;;2.71;88.91;97525.72;1771878;80;20992;-82
2021/12/15 00:20:09;;;;;;;32.58;22.05;;;;;;;2.66;89.00;97525.69;1749989;80;21386;-82
2021/12/15 00:22:37;;;;;;;32.33;20.85;;;;;;;2.64;89.12;97530.11;1771280;80;21456;-82
2021/12/15 00:25:05;;;;;;;34.85;21.40;;;;;;;2.65;89.22;97529.17;1755081;80;21161;-82
2021/12/15 00:27:31;;;;;;;31.30;18.67;;;;;;;2.67;89.41;97532.45;1767957;79;21514;-82
2021/12/15 00:29:56;;;;;;;30.65;19.65;;;;;;;2.73;89.47;97534.59;1774598;79;21051;-82
2021/12/15 00:32:22;;;;;;;31.62;19.48;;;;;;;2.74;89.23;97532.84;1772596;80;21330;-82
2021/12/15 00:34:51;;;;;;;34.53;20.40;;;;;;;2.70;89.24;97535.62;1774617;80;21003;-82
2021/12/15 00:37:19;;;;;;;32.78;20.15;;;;;;;2.71;89.43;97532.59;1777225;80;20997;-82
2021/12/15 00:39:45;;;;;;;35.80;20.77;;;;;;;2.70;89.27;97536.91;1759889;80;21022;-81
2021/12/15 00:42:11;;;;;;;32.63;19.10;;;;;;;2.70;89.23;97533.06;1779890;79;21484;-81
2021/12/15 00:44:38;;;;;;;36.53;20.40;;;;;;;2.69;89.06;97529.31;1776585;80;20971;-81
2021/12/15 00:47:04;;;;;;;32.35;19.70;;;;;;;2.69;89.06;97529.31;1768335;80;21043;-82
2021/12/15 00:49:29;;;;;;;34.78;20.80;;;;;;;2.68;89.05;97532.35;1752909;80;21004;-82
2021/12/15 00:51:55;;;;;;;31.48;19.12;;;;;;;2.71;89.49;97532.13;1776207;80;21413;-82
2021/12/15 00:54:22;;;;;;;34.33;21.85;;;;;;;2.71;89.29;97533.88;1766972;80;21059;-82
2021/12/15 00:56:51;;;;;;;33.98;19.70;;;;;;;2.71;89.35;97534.70;1769358;80;21107;-82
2021/12/15 00:59:17;;;;;;;35.35;19.15;;;;;;;2.69;89.16;97531.42;1755671;80;21032;-82
2021/12/15 01:01:43;;;;;;;33.10;18.87;;;;;;;2.71;89.24;97533.42;1749446;80;21394;-82
2021/12/15 01:04:11;;;;;;;28.25;18.02;;;;;;;2.75;89.12;97534.48;1765545;80;21042;-82
2021/12/15 01:06:39;;;;;;;27.32;18.12;;;;;;;2.73;89.06;97531.20;1767710;80;21382;-82
2021/12/15 01:09:11;;;;;;;28.80;17.70;;;;;;;2.71;89.01;97537.73;1770202;80;21043;-82
2021/12/15 01:22:28;;;;;;;25.85;15.78;;;;;;;2.70;89.29;97545.89;1779878;80;21033;-82
2021/12/15 01:24:59;;;;;;;25.00;15.08;;;;;;;2.75;89.49;97543.47;1770874;79;20988;-82
2021/12/15 01:27:26;;;;;;;25.30;16.37;;;;;;;2.72;89.28;97547.07;1767883;80;21039;-82
2021/12/15 01:29:52;;;;;;;25.05;16.32;;;;;;;2.70;89.48;97540.77;1775156;80;21493;-82
2021/12/15 01:32:17;;;;;;;26.05;16.27;;;;;;;2.67;89.34;97542.72;1780362;80;21045;-82
2021/12/15 01:34:43;;;;;;;24.52;15.32;;;;;;;2.67;89.53;97552.98;1775696;80;21402;-82
2021/12/15 01:37:09;;;;;;;23.65;13.75;;;;;;;2.71;89.64;97543.69;1760944;80;22004;-82
2021/12/15 01:39:35;;;;;;;23.60;14.78;;;;;;;2.77;89.69;97550.16;1776699;80;21011;-82
2021/12/15 01:42:02;;;;;;;23.00;15.05;;;;;;;2.79;89.54;97547.02;1766128;80;21019;-82
2021/12/15 01:46:59;;;;;;;20.90;13.80;;;;;;;2.80;89.69;97544.00;1758568;80;21065;-82
2021/12/15 01:49:40;;;;;;;17.85;11.08;;;;;;;2.81;89.53;97544.35;1778390;80;20991;-82
2021/12/15 01:52:33;;;;;;;20.37;12.88;;;;;;;2.79;89.45;97539.79;1780243;80;21406;-83
2021/12/15 01:55:04;;;;;;;20.00;12.95;;;;;;;2.77;89.22;97548.88;1779351;80;21004;-82
2021/12/15 01:57:31;;;;;;;21.15;14.47;;;;;;;2.76;89.30;97544.64;1765899;80;21008;-82
2021/12/15 01:59:57;;;;;;;17.77;12.07;;;;;;;2.78;89.75;97545.39;1768027;80;21094;-81
2021/12/15 02:02:22;;;;;;;19.95;11.95;;;;;;;2.80;89.69;97543.53;1756660;80;21402;-82
2021/12/15 02:04:50;;;;;;;18.48;11.90;;;;;;;2.77;89.56;97541.64;1767957;79;21042;-81
2021/12/15 02:07:17;;;;;;;18.62;12.50;;;;;;;2.74;89.45;97535.41;1771067;80;21062;-81
2021/12/15 02:12:23;;;;;;;17.12;11.45;;;;;;;2.66;89.16;97543.65;1768787;80;21060;-81
2021/12/15 02:14:48;;;;;;;15.83;11.45;;;;;;;2.64;89.35;97542.47;1755177;80;21000;-81
2021/12/15 02:17:14;;;;;;;19.05;12.20;;;;;;;2.61;89.47;97538.84;1767092;80;21042;-81
2021/12/15 02:19:40;;;;;;;16.70;11.03;;;;;;;2.59;89.65;97531.67;1779535;80;21091;-82
2021/12/15 02:22:06;;;;;;;17.02;11.38;;;;;;;2.57;89.91;97525.83;1765651;80;21142;-81
2021/12/15 02:24:34;;;;;;;15.88;10.95;;;;;;;2.59;89.72;97538.09;1756978;80;21560;-82
2021/12/15 02:27:02;;;;;;;15.68;9.85;;;;;;;2.61;89.69;97539.30;1765897;80;21026;-82
2021/12/15 02:29:33;;;;;;;13.98;10.10;;;;;;;2.63;89.75;97536.98;1772089;80;21462;-82
2021/12/15 02:32:07;;;;;;;14.85;10.75;;;;;;;2.65;89.69;97545.86;1763831;80;20980;-82
2021/12/15 02:39:40;;;;;;;16.97;11.45;;;;;;;2.64;89.95;97539.09;1763923;80;21418;-82
2021/12/15 02:42:07;;;;;;;14.53;10.43;;;;;;;2.66;90.01;97538.05;1753197;80;21409;-81
2021/12/15 02:44:33;;;;;;;15.83;10.93;;;;;;;2.67;89.71;97541.44;1759754;80;21092;-82
2021/12/15 02:46:59;;;;;;;12.85;10.18;;;;;;;2.67;89.60;97542.26;1757859;80;21035;-83
2021/12/15 02:49:27;;;;;;;16.32;11.10;;;;;;;2.67;89.67;97543.55;1730494;80;21473;-81
2021/12/15 02:51:53;;;;;;;17.95;12.33;;;;;;;2.69;89.75;97549.85;1769057;80;21071;-82
2021/12/15 02:54:21;;;;;;;17.17;12.20;;;;;;;2.67;89.77;97561.50;1786350;79;20933;-81
2021/12/15 02:56:50;;;;;;;16.77;12.88;;;;;;;2.65;89.69;97569.77;1783051;79;21070;-81
2021/12/15 02:59:17;;;;;;;18.60;12.10;;;;;;;2.65;89.77;97568.95;1789591;79;21019;-82
2021/12/15 03:02:16;;;;;;;13.85;10.68;;;;;;;2.64;89.58;97568.13;1741914;79;21090;-81
2021/12/15 03:04:44;;;;;;;16.32;11.63;;;;;;;2.64;89.60;97575.02;1792850;79;21431;-82
2021/12/15 03:07:17;;;;;;;19.15;12.90;;;;;;;2.62;89.91;97570.45;1790438;79;20997;-82
2021/12/15 03:17:36;;;;;;;17.30;11.70;;;;;;;2.68;90.06;97565.71;1789530;79;21433;-82
2021/12/15 03:20:04;;;;;;;22.37;13.95;;;;;;;2.75;90.42;97551.98;1789045;79;20999;-82
2021/12/15 03:22:30;;;;;;;18.85;12.50;;;;;;;2.79;90.28;97557.76;1787034;79;21028;-82
2021/12/15 03:24:56;;;;;;;17.60;12.50;;;;;;;2.81;90.12;97561.86;1788392;80;20963;-81
2021/12/15 03:33:13;;;;;;;18.60;12.78;;;;;;;2.79;90.00;97568.84;1790790;79;20989;-82
2021/12/15 03:35:33;;;;;;;20.75;12.93;;;;;;;2.72;90.30;97581.72;1777770;79;20968;-82
2021/12/15 03:37:55;;;;;;;23.38;15.72;;;;;;;2.79;90.22;97580.39;1755250;78;21390;-81
2021/12/15 03:40:27;;;;;;;22.30;14.93;;;;;;;2.83;90.22;97583.56;1771064;80;21003;-82
2021/12/15 03:42:58;;;;;;;21.77;15.38;;;;;;;2.83;90.09;97586.13;1765526;80;21047;-82
2021/12/15 03:45:35;;;;;;;23.92;16.50;;;;;;;2.82;90.30;97587.88;1765154;80;21431;-82
2021/12/15 03:48:06;;;;;;;24.85;16.60;;;;;;;2.82;90.30;97593.48;1781252;79;20984;-82
2021/12/15 03:50:32;;;;;;;21.52;16.67;;;;;;;2.79;90.04;97595.80;1775994;80;21046;-82
2021/12/15 03:52:58;;;;;;;22.52;16.90;;;;;;;2.78;89.91;97585.63;1779314;80;20972;-82
2021/12/15 03:55:27;;;;;;;23.12;16.32;;;;;;;2.79;90.07;97588.09;1762105;80;21011;-82
2021/12/15 03:57:53;;;;;;;25.15;18.45;;;;;;;2.79;89.89;97597.08;1779124;80;21011;-82
2021/12/15 04:00:19;;;;;;;26.25;16.20;;;;;;;2.75;89.77;97602.03;1781162;80;21402;-82
2021/12/15 04:02:45;;;;;;;27.37;16.80;;;;;;;2.76;90.02;97599.83;1762185;80;21066;-82
2021/12/15 04:05:14;;;;;;;26.68;17.77;;;;;;;2.75;90.13;97602.03;1768802;80;21094;-82
2021/12/15 04:07:40;;;;;;;28.90;18.00;;;;;;;2.74;89.98;97595.27;1760268;80;21062;-82
2021/12/15 04:10:08;;;;;;;26.87;16.95;;;;;;;2.74;90.02;97590.13;1777650;80;21453;-82
2021/12/15 04:12:34;;;;;;;25.68;18.02;;;;;;;2.75;89.84;97596.08;1773467;80;21051;-82
2021/12/15 04:15:20;;;;;;;31.12;21.93;;;;;;;2.76;89.93;97604.14;1780455;80;21457;-82
2021/12/15 04:17:36;;;;;;;30.68;19.67;;;;;;;2.75;90.16;97599.94;1775174;80;21047;-82
2021/12/15 04:20:07;;;;;;;30.37;20.25;;;;;;;2.75;90.38;97599.47;1762013;80;21381;-82
2021/12/15 04:22:33;;;;;;;30.37;19.48;;;;;;;2.77;90.37;97604.53;1770400;80;21087;-82
2021/12/15 04:24:59;;;;;;;26.07;18.57;;;;;;;2.73;90.23;97603.89;1760363;80;20999;-82
2021/12/15 04:27:26;;;;;;;28.07;19.77;;;;;;;2.72;90.04;97602.25;1754770;80;20963;-81
2021/12/15 04:29:52;;;;;;;28.65;20.35;;;;;;;2.75;90.22;97605.89;1759995;80;21437;-82
2021/12/15 04:32:29;;;;;;;28.80;20.57;;;;;;;2.81;90.44;97603.39;1749343;80;21398;-82
2021/12/15 04:34:55;;;;;;;33.20;21.27;;;;;;;2.79;90.29;97608.63;1771064;80;21366;-82
2021/12/15 04:37:21;;;;;;;31.77;21.87;;;;;;;2.79;90.42;97612.48;1747299;79;21031;-82
2021/12/15 04:39:47;;;;;;;31.60;20.08;;;;;;;2.81;90.33;97617.05;1754955;80;21082;-82
2021/12/15 04:42:16;;;;;;;31.00;22.25;;;;;;;2.80;90.20;97614.58;1749568;80;21043;-82
2021/12/15 04:44:41;;;;;;;28.42;19.50;;;;;;;2.83;90.20;97621.61;1747709;80;21062;-82
2021/12/15 04:47:10;;;;;;;31.57;22.02;;;;;;;2.87;90.03;97623.50;1767581;80;20964;-82
2021/12/15 04:49:41;;;;;;;31.33;21.12;;;;;;;2.87;89.95;97623.03;1781271;80;21019;-82
2021/12/15 04:52:08;;;;;;;33.18;21.27;;;;;;;2.88;90.21;97623.86;1767347;80;21035;-82
2021/12/15 04:54:34;;;;;;;29.87;20.48;;;;;;;2.84;90.11;97626.28;1765572;80;20983;-82
2021/12/15 04:57:01;;;;;;;33.30;22.05;;;;;;;2.82;90.20;97630.23;1752979;80;21062;-82
2021/12/15 04:59:28;;;;;;;30.15;20.32;;;;;;;2.80;89.95;97629.52;1762983;80;20980;-82
2021/12/15 05:01:54;;;;;;;27.95;20.60;;;;;;;2.80;89.85;97633.84;1776329;80;21354;-82
2021/12/15 05:04:20;;;;;;;27.90;20.57;;;;;;;2.81;90.03;97635.02;1773197;80;20987;-82
2021/12/15 05:06:46;;;;;;;31.93;20.82;;;;;;;2.83;90.03;97638.76;1763313;80;21055;-82
2021/12/15 05:09:14;;;;;;;34.83;22.02;;;;;;;2.80;89.85;97633.84;1767947;80;21362;-82
2021/12/15 05:11:40;;;;;;;33.33;22.17;;;;;;;2.79;90.08;97636.05;1755027;80;21078;-82
2021/12/15 05:14:06;;;;;;;29.70;20.92;;;;;;;2.78;90.31;97643.39;1775048;80;20972;-82
2021/12/15 05:16:32;;;;;;;31.70;19.77;;;;;;;2.80;90.30;97642.81;1756020;79;21046;-82
2021/12/15 05:18:58;;;;;;;34.80;22.85;;;;;;;2.79;89.80;97648.88;1764318;80;21011;-82
2021/12/15 05:21:24;;;;;;;38.73;25.00;;;;;;;2.83;90.22;97643.42;1771683;80;21342;-82
2021/12/15 05:23:56;;;;;;;41.65;26.07;;;;;;;2.85;90.18;97641.58;1769927;80;21100;-82
2021/12/15 05:26:18;;;;;;;41.00;27.48;;;;;;;2.84;90.02;97648.92;1771414;80;21032;-82
2021/12/15 05:28:43;;;;;;;36.70;25.32;;;;;;;2.84;90.18;97651.95;1779433;80;21437;-82
2021/12/15 05:31:09;;;;;;;34.55;24.30;;;;;;;2.84;90.12;97656.62;1770396;80;21090;-82
2021/12/15 05:33:35;;;;;;;40.92;27.45;;;;;;;2.86;90.30;97651.38;1766276;80;21127;-82
2021/12/15 05:36:01;;;;;;;39.03;26.65;;;;;;;2.87;89.97;97650.45;1756455;79;21426;-82
2021/12/15 05:38:27;;;;;;;43.52;29.20;;;;;;;2.86;89.96;97652.66;1752661;80;21027;-82
2021/12/15 05:40:53;;;;;;;40.52;27.40;;;;;;;2.85;89.84;97647.99;1780707;80;21373;-82
2021/12/15 05:43:19;;;;;;;44.40;28.15;;;;;;;2.82;89.71;97648.67;1767454;80;21015;-82
2021/12/15 05:45:48;;;;;;;49.20;31.57;;;;;;;2.77;89.90;97652.02;1756447;81;21047;-82
2021/12/15 05:48:13;;;;;;;55.95;32.88;;;;;;;2.73;89.79;97653.94;1770256;80;21060;-82
2021/12/15 05:50:39;;;;;;;50.58;31.60;;;;;;;2.73;89.79;97663.38;1770440;80;21406;-82
2021/12/15 05:53:05;;;;;;;49.85;32.05;;;;;;;2.74;89.91;97668.87;1775220;80;21023;-82
2021/12/15 05:55:31;;;;;;;47.48;32.17;;;;;;;2.77;89.79;97673.83;1779120;80;21011;-82
2021/12/15 05:57:57;;;;;;;47.53;30.40;;;;;;;2.77;89.80;97668.70;1776163;80;21067;-82
2021/12/15 06:00:28;;;;;;;49.13;33.28;;;;;;;2.78;89.96;97666.02;1773507;80;21422;-82
2021/12/15 06:02:57;;;;;;;47.00;30.50;;;;;;;2.77;89.94;97669.52;1757685;80;21011;-82
2021/12/15 06:05:23;;;;;;;48.33;32.15;;;;;;;2.78;90.18;97672.44;1761416;80;21094;-82
2021/12/15 06:07:49;;;;;;;52.70;31.10;;;;;;;2.80;89.97;97676.19;1776083;80;21103;-82
2021/12/15 06:10:21;;;;;;;53.85;32.48;;;;;;;2.79;89.89;97679.22;1749360;80;21154;-82
2021/12/15 06:12:48;;;;;;;45.75;28.57;;;;;;;2.82;90.05;97678.19;1773120;80;20995;-82
2021/12/15 06:15:20;;;;;;;54.23;35.20;;;;;;;2.86;89.93;97683.47;1755894;80;21074;-82
2021/12/15 06:17:43;;;;;;;57.33;33.95;;;;;;;2.82;89.75;97684.61;1774971;80;21004;-82
2021/12/15 06:20:09;;;;;;;54.93;32.88;;;;;;;2.81;90.08;97691.48;1770027;80;21045;-82
2021/12/15 06:22:37;;;;;;;53.48;32.98;;;;;;;2.77;89.80;97691.33;1775845;80;21405;-82
2021/12/15 06:25:03;;;;;;;50.92;31.07;;;;;;;2.73;89.68;97691.16;1773827;80;21022;-82
2021/12/15 06:27:30;;;;;;;49.83;31.23;;;;;;;2.74;89.89;97692.80;1754776;80;20995;-82
2021/12/15 06:29:56;;;;;;;48.95;31.30;;;;;;;2.75;89.78;97696.18;1761471;80;21052;-82
2021/12/15 06:32:22;;;;;;;50.95;31.30;;;;;;;2.75;89.95;97691.87;1774366;80;21473;-82
2021/12/15 06:34:48;;;;;;;52.62;32.00;;;;;;;2.71;90.07;97695.11;1760567;80;21052;-82
2021/12/15 06:37:14;;;;;;;48.90;32.00;;;;;;;2.73;90.16;97700.13;1766260;80;21092;-82
2021/12/15 06:39:39;;;;;;;49.93;30.75;;;;;;;2.70;90.00;97701.63;1781283;80;20995;-81
2021/12/15 06:42:06;;;;;;;48.35;28.35;;;;;;;2.68;90.10;97715.84;1764492;80;20991;-82
2021/12/15 06:44:33;;;;;;;48.78;29.57;;;;;;;2.68;90.13;97709.89;1775375;80;20992;-82
2021/12/15 07:00:18;;;;;;;49.05;27.50;;;;;;;2.60;90.68;97705.70;1760560;80;20980;-82
2021/12/15 07:02:43;;;;;;;43.42;26.70;;;;;;;2.62;91.23;97701.32;1770954;80;21113;-82
2021/12/15 07:05:11;;;;;;;51.30;31.10;;;;;;;2.71;91.60;97699.42;1749126;80;21087;-82
2021/12/15 07:07:39;;;;;;;57.38;31.68;;;;;;;2.82;91.67;97706.42;1752868;80;21366;-82
2021/12/15 07:10:06;;;;;;;45.17;28.85;;;;;;;2.89;91.58;97702.52;1760197;80;21098;-82
2021/12/15 07:12:33;;;;;;;45.40;26.12;;;;;;;2.90;91.25;97706.72;1775642;80;20987;-83
2021/12/15 07:14:59;;;;;;;40.63;25.72;;;;;;;2.85;91.00;97706.22;1767628;80;21362;-82
2021/12/15 07:17:25;;;;;;;39.85;24.05;;;;;;;2.82;91.12;97703.86;1756003;80;20996;-82
2021/12/15 07:20:41;;;;;;;43.02;25.55;;;;;;;2.82;91.19;97708.53;1780303;80;21082;-82
2021/12/15 07:22:32;;;;;;;35.05;20.92;;;;;;;2.88;91.36;97711.14;1744293;80;21290;-82
2021/12/15 07:24:59;;;;;;;33.35;22.05;;;;;;;2.95;90.97;97709.83;1764819;80;21047;-82
2021/12/15 07:27:25;;;;;;;41.13;23.52;;;;;;;3.01;91.31;97718.39;1770686;80;21074;-82
2021/12/15 07:29:51;;;;;;;37.03;24.47;;;;;;;3.11;91.83;97714.30;1754931;80;21018;-82
2021/12/15 07:32:17;;;;;;;36.83;22.05;;;;;;;3.21;91.82;97710.63;1772089;80;21058;-82
2021/12/15 07:34:43;;;;;;;27.90;18.12;;;;;;;3.23;91.36;97712.63;1765655;80;20967;-82
2021/12/15 07:37:08;;;;;;;29.37;19.32;;;;;;;3.25;90.81;97721.91;1763713;80;21008;-82
2021/12/15 07:39:36;;;;;;;22.22;15.35;;;;;;;3.25;90.42;97726.19;1778195;80;21382;-82
2021/12/15 07:42:06;;;;;;;24.18;15.80;;;;;;;3.25;90.21;97721.05;1775612;80;21027;-82
2021/12/15 07:44:30;;;;;;;22.37;15.53;;;;;;;3.27;90.12;97726.47;1765634;79;21059;-82
2021/12/15 07:46:56;;;;;;;26.15;18.73;;;;;;;3.29;89.97;97732.79;1769289;80;21398;-82
2021/12/15 07:49:23;;;;;;;20.27;13.32;;;;;;;3.37;90.67;97735.64;1777133;80;21039;-82
2021/12/15 07:51:52;;;;;;;21.62;14.87;;;;;;;3.43;90.23;97738.28;1781116;80;20996;-82
2021/12/15 07:54:19;;;;;;;23.22;16.07;;;;;;;3.42;89.89;97746.92;1765391;79;21089;-82
2021/12/15 07:56:45;;;;;;;18.60;13.60;;;;;;;3.44;90.07;97744.59;1762707;80;21429;-82
2021/12/15 07:59:11;;;;;;;19.90;15.00;;;;;;;3.47;89.81;97750.81;1776592;80;21114;-82
2021/12/15 08:01:37;;;;;;;12.43;7.85;;;;;;;3.49;89.79;97753.27;1768323;80;21390;-82
2021/12/15 08:04:04;;;;;;;9.15;5.80;;;;;;;3.51;89.88;97755.27;1775773;80;21105;-82
2021/12/15 08:06:30;;;;;;;6.12;4.70;;;;;;;3.51;89.55;97765.09;1776593;80;21019;-82
2021/12/15 08:08:56;;;;;;;12.20;7.78;;;;;;;3.49;89.54;97769.52;1776327;80;21572;-81
2021/12/15 08:11:22;;;;;;;22.25;12.70;;;;;;;3.48;89.70;97776.05;1771791;80;20988;-82
2021/12/15 08:13:49;;;;;;;58.25;30.77;;;;;;;3.49;89.66;97776.41;1760119;80;21067;-82
2021/12/15 08:16:14;;;;;;;46.70;27.35;;;;;;;3.51;89.99;97778.40;1753726;81;20999;-82
2021/12/15 08:18:41;;;;;;;43.13;25.90;;;;;;;3.56;90.10;97781.47;1779647;80;20995;-82
2021/12/15 08:21:07;;;;;;;33.48;21.33;;;;;;;3.55;89.88;97780.65;1767822;79;21018;-82
2021/12/15 08:23:33;;;;;;;28.45;18.65;;;;;;;3.52;89.88;97783.44;1728446;81;21056;-82
2021/12/15 08:25:59;;;;;;;32.95;19.70;;;;;;;3.53;89.85;97779.94;1768143;80;21153;-82
2021/12/15 08:28:25;;;;;;;31.12;18.70;;;;;;;3.56;89.97;97792.58;1767824;80;21521;-82
2021/12/15 08:30:52;;;;;;;31.80;20.12;;;;;;;3.65;90.20;97788.57;1757410;80;21063;-82
2021/12/15 08:33:20;;;;;;;32.35;21.02;;;;;;;3.72;90.30;97785.93;1760143;80;21102;-82
2021/12/15 08:35:58;;;;;;;34.38;22.25;;;;;;;3.84;90.39;97786.38;1781472;80;21374;-82
2021/12/15 08:38:28;;;;;;;33.28;23.32;;;;;;;3.93;89.92;97777.69;1781407;80;21022;-82
2021/12/15 08:40:54;;;;;;;38.88;24.85;;;;;;;3.97;90.18;97782.51;1776177;80;21022;-82
2021/12/15 08:43:20;;;;;;;36.63;22.45;;;;;;;4.02;90.15;97784.28;1780283;80;21484;-82
2021/12/15 08:45:54;;;;;;;27.62;19.12;;;;;;;4.01;89.79;97791.65;1761729;80;22136;-82
2021/12/15 08:48:20;;;;;;;34.10;21.20;;;;;;;4.02;89.61;97797.15;1769574;80;21386;-83
2021/12/15 08:50:45;;;;;;;27.90;19.07;;;;;;;4.11;89.50;97802.12;1761336;80;20960;-82
2021/12/15 08:53:12;;;;;;;38.02;27.05;;;;;;;4.17;89.43;97803.80;1753942;80;21493;-82
2021/12/15 08:55:41;;;;;;;42.10;27.35;;;;;;;4.22;89.79;97806.86;1765025;80;21083;-82
2021/12/15 08:58:10;;;;;;;43.65;26.27;;;;;;;4.25;89.72;97814.86;1778160;80;21011;-82
2021/12/15 09:00:35;;;;;;;31.15;20.52;;;;;;;4.26;89.71;97810.53;1722865;80;21016;-82
2021/12/15 09:03:01;;;;;;;24.07;17.32;;;;;;;4.26;89.58;97808.78;1771739;80;21409;-82
2021/12/15 09:05:27;;;;;;;28.07;19.30;;;;;;;4.24;89.38;97799.53;1766241;80;20980;-82
2021/12/15 09:07:56;;;;;;;36.58;24.80;;;;;;;4.29;89.10;97810.31;1775561;80;21028;-82
2021/12/15 09:10:23;;;;;;;70.05;41.65;;;;;;;4.29;89.19;97814.17;1768903;80;21441;-82
2021/12/15 09:12:49;;;;;;;50.75;30.72;;;;;;;4.18;89.18;97817.02;1777242;80;21030;-82
2021/12/15 09:15:15;;;;;;;74.60;46.45;;;;;;;4.14;89.06;97823.31;1765823;80;20948;-82
2021/12/15 09:17:41;;;;;;;73.15;44.55;;;;;;;4.13;89.68;97820.39;1760372;80;21110;-82
2021/12/15 09:20:10;;;;;;;127.75;80.32;;;;;;;4.12;89.55;97821.31;1752088;80;21086;-82
2021/12/15 09:22:38;;;;;;;104.70;70.57;;;;;;;4.11;89.36;97815.81;1775866;79;21424;-82
2021/12/15 09:25:08;;;;;;;72.50;45.40;;;;;;;4.09;89.28;97814.28;1760260;80;21012;-82
2021/12/15 09:27:34;;;;;;;71.42;45.90;;;;;;;4.13;89.05;97802.84;1747513;80;21051;-82
2021/12/15 09:29:59;;;;;;;61.83;39.23;;;;;;;4.14;89.12;97806.59;1758482;80;21076;-82
2021/12/15 09:32:25;;;;;;;69.20;43.63;;;;;;;4.07;88.89;97800.24;1769930;79;21059;-82
2021/12/15 09:34:51;;;;;;;73.10;46.08;;;;;;;4.04;89.27;97802.19;1774474;80;21018;-82
2021/12/15 09:37:19;;;;;;;82.40;52.65;;;;;;;4.11;89.60;97798.27;1779453;80;21409;-82
2021/12/15 09:39:44;;;;;;;107.87;67.75;;;;;;;4.18;89.65;97791.30;1762108;80;21036;-82
2021/12/15 09:42:10;;;;;;;101.25;67.78;;;;;;;4.26;89.67;97786.91;1760894;80;21326;-83
2021/12/15 09:44:36;;;;;;;100.62;66.12;;;;;;;4.32;89.75;97786.47;1774339;80;21158;-82
2021/12/15 10:03:05;;;;;;;104.60;62.23;;;;;;;4.61;88.73;97777.14;1751474;80;21422;-82
2021/12/15 10:19:30;;;;;;;78.28;48.98;;;;;;;4.69;89.21;97773.06;1748255;80;20984;-82
2021/12/15 10:25:14;;;;;;;41.08;27.55;;;;;;;4.67;89.02;97779.27;1755281;80;21094;-82
2021/12/15 10:27:54;;;;;;;30.75;20.40;;;;;;;4.58;88.67;97789.77;1780342;80;21118;-82
2021/12/15 10:30:53;;;;;;;41.80;28.17;;;;;;;4.47;88.43;97789.71;1775290;80;21422;-82
2021/12/15 10:33:33;;;;;;;47.65;33.35;;;;;;;4.40;88.76;97790.63;1762588;80;21398;-82
2021/12/15 10:36:10;;;;;;;32.85;24.27;;;;;;;4.40;89.02;97785.94;1769327;79;21394;-82
2021/12/15 10:38:50;;;;;;;15.13;11.35;;;;;;;4.41;88.93;97785.01;1778318;80;20992;-82
2021/12/15 10:41:27;;;;;;;12.75;9.68;;;;;;;4.37;88.88;97781.81;1770420;80;21084;-82
2021/12/15 10:44:14;;;;;;;11.97;8.78;;;;;;;4.34;89.14;97775.59;1759378;80;21459;-81
2021/12/15 10:47:03;;;;;;;11.22;9.25;;;;;;;4.34;88.99;97774.31;1772978;80;21079;-82
2021/12/15 10:49:32;;;;;;;11.25;8.58;;;;;;;4.34;89.03;97774.78;1763238;80;20996;-82
2021/12/15 10:52:07;;;;;;;11.30;9.33;;;;;;;4.42;89.21;97778.93;1778441;80;21027;-82
2021/12/15 10:54:50;;;;;;;12.25;9.18;;;;;;;4.47;89.36;97774.27;1764351;80;21036;-82
2021/12/15 10:57:21;;;;;;;11.12;8.35;;;;;;;4.55;89.25;97774.52;1774804;80;21001;-82
2021/12/15 10:59:53;;;;;;;12.37;8.35;;;;;;;4.46;88.51;97769.58;1744810;80;21044;-81
2021/12/15 11:02:24;;;;;;;11.78;6.62;;;;;;;4.42;88.88;97770.74;1769990;80;20999;-81
2021/12/15 11:05:05;;;;;;;11.20;7.95;;;;;;;4.41;88.88;97773.42;1764832;79;21035;-81
2021/12/15 11:07:44;;;;;;;11.50;7.62;;;;;;;4.41;88.80;97776.00;1769323;80;21019;-82
2021/12/15 11:10:22;;;;;;;10.00;6.87;;;;;;;4.43;88.70;97764.66;1779331;80;21118;-81
2021/12/15 11:12:57;;;;;;;10.05;7.97;;;;;;;4.43;88.48;97765.13;1774135;80;21007;-81
2021/12/15 11:15:48;;;;;;;9.95;7.80;;;;;;;4.37;88.35;97753.97;1768838;80;21036;-82
2021/12/15 11:18:24;;;;;;;9.53;8.18;;;;;;;4.34;88.56;97757.59;1768876;80;21075;-82
2021/12/15 11:21:04;;;;;;;10.30;7.60;;;;;;;4.39;88.98;97757.25;1756105;79;21359;-82
2021/12/15 11:23:31;;;;;;;12.95;8.88;;;;;;;4.40;88.97;97753.77;1765455;80;21038;-81
2021/12/15 11:26:08;;;;;;;11.57;8.78;;;;;;;4.38;88.78;97754.32;1760343;80;21031;-82
2021/12/15 11:28:45;;;;;;;15.25;11.18;;;;;;;4.38;89.05;97753.85;1754915;80;21359;-81
2021/12/15 11:31:17;;;;;;;13.62;10.95;;;;;;;4.43;89.36;97753.08;1775675;80;21441;-82
2021/12/15 11:33:51;;;;;;;13.72;10.38;;;;;;;4.41;89.23;97747.22;1771175;80;21481;-82
2021/12/15 11:36:27;;;;;;;13.30;9.33;;;;;;;4.38;89.38;97753.85;1772172;80;20979;-81
2021/12/15 11:39:00;;;;;;;12.15;8.63;;;;;;;4.38;89.41;97753.85;1765763;80;21113;-82
2021/12/15 11:41:41;;;;;;;13.10;9.13;;;;;;;4.41;89.26;97754.95;1752192;80;21075;-82
2021/12/15 11:44:16;;;;;;;15.32;10.78;;;;;;;4.40;89.28;97740.44;1753014;80;20979;-81
2021/12/15 11:46:46;;;;;;;12.75;9.30;;;;;;;4.44;89.46;97732.84;1776884;80;21012;-82
2021/12/15 11:49:22;;;;;;;13.58;10.18;;;;;;;4.42;89.42;97733.89;1771357;80;21010;-82
2021/12/15 11:51:56;;;;;;;12.35;8.80;;;;;;;4.42;89.71;97723.59;1765487;80;21027;-82
2021/12/15 11:54:26;;;;;;;13.62;9.40;;;;;;;4.40;89.79;97721.14;1776661;80;21050;-82
2021/12/15 11:57:09;;;;;;;11.50;7.90;;;;;;;4.40;90.03;97719.03;1753763;80;21031;-82
2021/12/15 11:59:42;;;;;;;12.73;8.50;;;;;;;4.38;89.98;97722.97;1759794;80;21003;-82
2021/12/15 12:02:27;;;;;;;13.28;8.85;;;;;;;4.36;89.89;97711.16;1760236;80;21048;-82
2021/12/15 12:05:08;;;;;;;13.20;9.30;;;;;;;4.36;90.13;97708.11;1761873;80;21069;-82
2021/12/15 12:07:38;;;;;;;13.25;9.80;;;;;;;4.37;90.23;97699.92;1777811;79;21410;-82
2021/12/15 12:10:14;;;;;;;13.15;10.13;;;;;;;4.36;90.26;97698.28;1770458;80;21350;-82
2021/12/15 12:12:50;;;;;;;17.55;11.95;;;;;;;4.34;90.43;97705.30;1770388;80;21003;-82
2021/12/15 12:15:13;;;;;;;16.67;12.37;;;;;;;4.36;90.78;97702.97;1775189;80;21018;-82
2021/12/15 12:17:43;;;;;;;16.17;11.35;;;;;;;4.42;90.80;97699.15;1780881;80;21466;-82
2021/12/15 12:20:16;;;;;;;15.03;10.82;;;;;;;4.48;90.77;97703.84;1773310;80;21012;-82
2021/12/15 12:22:43;;;;;;;14.95;10.95;;;;;;;4.53;90.58;97709.00;1775357;79;21113;-82
2021/12/15 12:25:15;;;;;;;13.30;10.20;;;;;;;4.56;90.40;97707.98;1773437;80;21032;-81
2021/12/15 12:27:41;;;;;;;14.83;10.30;;;;;;;4.58;90.31;97706.58;1755098;80;21337;-82
2021/12/15 12:30:11;;;;;;;11.93;9.35;;;;;;;4.59;90.30;97712.08;1779444;80;21432;-82
2021/12/15 12:32:39;;;;;;;12.82;9.40;;;;;;;4.62;90.41;97717.00;1779020;80;22255;-81
2021/12/15 12:35:08;;;;;;;11.90;8.38;;;;;;;4.67;90.28;97724.73;1766266;80;21378;-81
2021/12/15 12:37:35;;;;;;;16.37;10.90;;;;;;;4.73;90.03;97726.05;1774005;80;21122;-81
2021/12/15 12:40:08;;;;;;;14.45;10.30;;;;;;;4.74;89.91;97725.94;1769180;80;21398;-81
2021/12/15 12:42:36;;;;;;;13.78;10.55;;;;;;;4.79;89.94;97723.02;1758963;80;21644;-81
2021/12/15 12:45:22;;;;;;;15.30;10.88;;;;;;;4.80;89.83;97722.91;1779164;80;21165;-81
2021/12/15 12:48:26;;;;;;;20.48;13.90;;;;;;;4.77;89.51;97726.17;1762511;80;21007;-81
2021/12/15 13:01:14;;;;;;;18.35;13.72;;;;;;;4.74;89.41;97720.79;1769421;80;21035;-81
2021/12/15 13:03:51;;;;;;;;;;;;;;;4.73;89.52;97717.86;1752065;80;21039;-81
2021/12/15 13:06:25;;;;;;;17.75;13.38;;;;;;;4.74;89.55;97718.22;1759175;80;20116;-81